This is the latest recevied weather packets stored in our database for station/object KB6HGN. If no packets are shown the sender has not sent any weather packets the latest 10 day(s).
| Time | Temp. | Humidity | Pressure | Rain* | Wind** | Luminosity | Snow |
|---|---|---|---|---|---|---|---|
| 1778391605 | 20° C | 64% | 1013.5 hPa | 0 mm | - | 0 W/m² | - |
| 1778389504 | 20° C | 63% | 1013.5 hPa | 0 mm | - | 0 W/m² | - |
| 1778388004 | 20.56° C | 59% | 1013.2 hPa | 0 mm | - | 0 W/m² | - |
| 1778385304 | 22.22° C | 53% | 1012.8 hPa | 0 mm | - | 0 W/m² | - |
| 1778384405 | 22.22° C | 51% | 1012.8 hPa | 0 mm | - | 0 W/m² | - |
| 1778383204 | 23.33° C | 49% | 1012.5 hPa | 0 mm | - | 0 W/m² | - |
| 1778382905 | 23.33° C | 48% | 1012.5 hPa | 0 mm | - | 0 W/m² | - |
| 1778381704 | 24.44° C | 45% | 1011.9 hPa | 0 mm | - | 0 W/m² | - |
| 1778380505 | 25° C | 43% | 1011.8 hPa | 0 mm | - | 0 W/m² | - |
| 1778379904 | 25.56° C | 40% | 1011.5 hPa | 0 mm | - | 0 W/m² | - |
| 1778376304 | 28.89° C | 32% | 1011.2 hPa | 0 mm | - | 77 W/m² | - |
| 1778374504 | 29.44° C | 31% | 1011.1 hPa | 0 mm | - | 183 W/m² | - |
| 1778371505 | 30.56° C | 29% | 1010.8 hPa | 0 mm | - | 407 W/m² | - |
| 1778370304 | 30.56° C | 29% | 1010.8 hPa | 0 mm | - | 479 W/m² | - |
| 1778369104 | 31.11° C | 29% | 1010.8 hPa | 0 mm | - | 545 W/m² | - |
| 1778368205 | 31.11° C | 30% | 1010.9 hPa | 0 mm | - | 589 W/m² | - |
| 1778366704 | 31.11° C | 28% | 1011.2 hPa | 0 mm | - | 672 W/m² | - |
| 1778365804 | 31.11° C | 28% | 1011.5 hPa | 0 mm | - | 702 W/m² | - |
| 1778364004 | 31.11° C | 27% | 1011.5 hPa | 0 mm | - | 770 W/m² | - |
| 1778362204 | 30.56° C | 26% | 1011.9 hPa | 0 mm | - | 825 W/m² | - |
| 1778361308 | 31.11° C | 26% | 1012.2 hPa | 0 mm | - | 849 W/m² | - |
| 1778360705 | 30° C | 28% | 1012.2 hPa | 0 mm | - | 862 W/m² | - |
| 1778359504 | 30° C | 29% | 1012.5 hPa | 0 mm | - | 894 W/m² | - |
| 1778357705 | 28.89° C | 30% | 1012.7 hPa | 0 mm | - | 917 W/m² | - |
| 1778356204 | 28.33° C | 34% | 1012.8 hPa | 0 mm | - | 923 W/m² | - |
* Rain latest hour (hover to see other rain measurements)
** Current wind speed in m/s (hover to see current wind gust speed)